createdAt,value
2018-08-31T00:02:35.068Z,3.00
2018-08-31T00:05:44.955Z,5.00
2018-08-31T00:09:29.715Z,1.00
2018-08-31T00:12:30.998Z,2.50
2018-08-31T00:14:59.320Z,1.00
2018-08-31T00:17:28.050Z,1.50
2018-08-31T00:19:56.372Z,3.00
2018-08-31T00:22:24.892Z,1.00
2018-08-31T00:25:05.527Z,2.00
2018-08-31T00:27:45.218Z,2.00
2018-08-31T00:30:24.785Z,1.00
2018-08-31T00:34:08.788Z,2.00
2018-08-31T00:37:19.706Z,3.00
2018-08-31T00:40:01.040Z,3.00
2018-08-31T00:42:40.622Z,4.00
2018-08-31T00:45:29.458Z,3.00
2018-08-31T00:47:58.859Z,3.00
2018-08-31T00:50:27.227Z,4.00
2018-08-31T00:52:57.906Z,3.00
2018-08-31T00:55:26.383Z,5.50
2018-08-31T00:57:54.725Z,5.00
2018-08-31T01:00:23.006Z,3.50
2018-08-31T01:02:52.231Z,1.00
2018-08-31T01:05:20.633Z,4.50
2018-08-31T01:07:49.263Z,5.00
2018-08-31T01:10:19.398Z,3.00
2018-08-31T01:12:48.438Z,5.00
2018-08-31T01:15:17.602Z,3.00
2018-08-31T01:17:46.159Z,3.00
2018-08-31T01:20:14.469Z,3.50
2018-08-31T01:22:42.806Z,3.00
2018-08-31T01:25:12.576Z,2.50
2018-08-31T01:27:41.123Z,3.00
2018-08-31T01:30:09.819Z,3.00
2018-08-31T01:32:38.146Z,3.00
2018-08-31T01:35:07.085Z,5.00
2018-08-31T01:37:35.471Z,3.00
2018-08-31T01:40:03.811Z,3.00
2018-08-31T01:42:32.139Z,1.50
2018-08-31T01:45:00.481Z,1.00
2018-08-31T01:47:28.778Z,4.50
2018-08-31T01:49:58.474Z,3.00
2018-08-31T01:52:27.745Z,5.00
2018-08-31T01:54:56.112Z,3.00
2018-08-31T01:57:26.955Z,6.00
2018-08-31T01:59:56.024Z,3.00
2018-08-31T02:02:24.906Z,5.00
2018-08-31T02:04:54.465Z,4.50
2018-08-31T02:07:23.044Z,1.50
2018-08-31T02:09:52.186Z,1.00
2018-08-31T02:12:20.506Z,1.00
2018-08-31T02:14:48.811Z,1.00
2018-08-31T02:17:18.328Z,2.50
2018-08-31T02:19:48.070Z,1.00
2018-08-31T02:22:17.191Z,3.50
2018-08-31T02:24:45.700Z,3.00
2018-08-31T02:27:14.029Z,3.00
2018-08-31T02:29:42.291Z,1.00
2018-08-31T02:32:13.718Z,1.50
2018-08-31T02:34:42.017Z,1.00
2018-08-31T02:37:10.467Z,1.00
2018-08-31T02:39:39.023Z,3.50
2018-08-31T02:42:09.150Z,1.00
2018-08-31T02:44:39.094Z,2.50
2018-08-31T02:47:07.468Z,1.00
2018-08-31T02:49:35.812Z,1.50
2018-08-31T02:52:04.804Z,1.00
2018-08-31T02:54:33.147Z,3.00
2018-08-31T02:57:03.259Z,3.00
2018-08-31T02:59:31.597Z,3.00
2018-08-31T03:01:59.917Z,1.00
2018-08-31T03:04:28.237Z,2.00
2018-08-31T03:06:56.554Z,3.00
2018-08-31T03:09:26.286Z,1.00
2018-08-31T03:11:55.706Z,3.00
2018-08-31T03:14:24.011Z,3.00
2018-08-31T03:16:53.006Z,2.50
2018-08-31T03:19:24.340Z,1.00
2018-08-31T03:21:52.655Z,1.00
2018-08-31T03:24:20.991Z,1.00
2018-08-31T03:26:49.330Z,3.00
2018-08-31T03:29:17.642Z,1.00
2018-08-31T03:31:48.689Z,1.00
2018-08-31T03:34:16.992Z,0.25
2018-08-31T03:36:45.354Z,3.00
2018-08-31T03:39:13.612Z,2.00
2018-08-31T03:41:41.921Z,1.00
2018-08-31T03:44:12.428Z,2.00
2018-08-31T03:46:40.752Z,1.50
2018-08-31T03:49:09.059Z,1.00
2018-08-31T03:51:37.378Z,1.00
2018-08-31T03:54:08.596Z,0.75
2018-08-31T03:56:36.928Z,1.00
2018-08-31T03:59:05.879Z,3.00
2018-08-31T04:01:34.215Z,1.50
2018-08-31T04:04:02.534Z,1.00
2018-08-31T04:06:30.868Z,3.00
2018-08-31T04:09:02.730Z,1.50
2018-08-31T04:11:31.117Z,1.00
2018-08-31T04:14:00.315Z,1.00
2018-08-31T04:16:28.646Z,1.00
2018-08-31T04:19:00.634Z,1.00
2018-08-31T04:21:28.990Z,1.00
2018-08-31T04:23:57.248Z,4.00
2018-08-31T04:26:25.635Z,2.00
2018-08-31T04:28:53.936Z,0.75
2018-08-31T04:31:22.231Z,3.00
2018-08-31T04:33:50.628Z,1.50
2018-08-31T04:36:21.377Z,3.00
2018-08-31T04:38:49.919Z,2.50
2018-08-31T04:41:19.287Z,1.00
2018-08-31T04:43:47.575Z,1.00
2018-08-31T04:46:16.008Z,1.50
2018-08-31T04:48:44.311Z,1.00
2018-08-31T04:51:12.605Z,1.00
2018-08-31T04:53:40.915Z,2.00
2018-08-31T04:56:09.242Z,1.00
2018-08-31T04:58:37.506Z,1.00
2018-08-31T05:01:06.418Z,3.00
2018-08-31T05:03:34.732Z,1.00
2018-08-31T05:06:03.696Z,0.25
2018-08-31T05:08:32.324Z,1.00
2018-08-31T05:11:01.628Z,1.00
2018-08-31T05:13:30.500Z,3.00
2018-08-31T05:16:00.711Z,1.00
2018-08-31T05:18:30.724Z,3.00
2018-08-31T05:20:59.027Z,5.00
2018-08-31T05:23:27.304Z,0.00
2018-08-31T05:25:56.465Z,1.00
2018-08-31T05:28:25.061Z,1.00
2018-08-31T05:30:53.413Z,3.00
2018-08-31T05:33:22.262Z,1.50
2018-08-31T05:35:50.546Z,1.00
2018-08-31T05:38:18.829Z,2.00
2018-08-31T05:40:47.150Z,3.00
2018-08-31T05:43:16.215Z,1.50
2018-08-31T05:45:44.523Z,1.00
2018-08-31T05:48:12.846Z,1.00
2018-08-31T05:50:41.166Z,1.00
2018-08-31T05:53:10.256Z,1.00
2018-08-31T05:55:39.475Z,2.00
2018-08-31T05:58:08.495Z,1.00
2018-08-31T06:00:38.839Z,5.25
2018-08-31T06:03:07.160Z,3.00
2018-08-31T06:05:35.470Z,5.00
2018-08-31T06:08:05.710Z,3.00
2018-08-31T06:10:35.799Z,1.00
2018-08-31T06:13:04.091Z,3.00
2018-08-31T06:15:32.435Z,1.00
2018-08-31T06:18:00.716Z,3.00
2018-08-31T06:20:29.157Z,3.00
2018-08-31T06:22:57.501Z,1.00
2018-08-31T06:25:26.647Z,3.00
2018-08-31T06:28:01.171Z,1.00
2018-08-31T06:30:31.800Z,1.00
2018-08-31T06:33:00.199Z,2.50
2018-08-31T06:35:28.931Z,1.00
2018-08-31T06:37:57.858Z,1.00
2018-08-31T06:40:27.153Z,1.00
2018-08-31T06:42:55.704Z,1.00
2018-08-31T06:45:24.672Z,0.25
2018-08-31T06:47:53.274Z,1.00
2018-08-31T06:50:22.783Z,0.75
2018-08-31T06:52:52.043Z,1.00
2018-08-31T06:55:20.343Z,1.00
2018-08-31T06:57:48.648Z,1.00
2018-08-31T07:00:16.972Z,1.50
2018-08-31T07:02:46.478Z,1.50
2018-08-31T07:05:14.815Z,2.50
2018-08-31T07:07:43.159Z,1.00
2018-08-31T07:10:13.951Z,1.00
2018-08-31T07:12:43.926Z,4.00
2018-08-31T07:15:14.133Z,1.50
2018-08-31T07:17:42.438Z,1.50
2018-08-31T07:24:59.671Z,2.50
2018-08-31T07:27:27.978Z,3.00
2018-08-31T07:29:56.288Z,1.50
2018-08-31T07:32:24.610Z,1.00
2018-08-31T07:34:52.978Z,3.00
2018-08-31T07:37:21.299Z,1.00
2018-08-31T07:39:49.672Z,3.00
2018-08-31T07:42:18.265Z,1.00
2018-08-31T07:44:50.500Z,1.00
2018-08-31T07:47:18.858Z,0.50
2018-08-31T07:49:47.182Z,3.00
2018-08-31T07:52:15.545Z,3.00
2018-08-31T07:54:44.591Z,3.00
2018-08-31T07:57:14.169Z,3.00
2018-08-31T07:59:42.560Z,2.00
2018-08-31T08:02:11.281Z,1.00
2018-08-31T08:04:39.790Z,1.00
2018-08-31T08:07:08.860Z,3.50
2018-08-31T08:09:40.299Z,1.50
2018-08-31T08:12:10.144Z,2.25
2018-08-31T08:14:39.298Z,2.50
2018-08-31T08:17:07.963Z,2.75
2018-08-31T08:19:36.647Z,2.75
2018-08-31T08:22:05.183Z,1.00
2018-08-31T08:24:34.327Z,1.00
2018-08-31T08:27:03.405Z,1.00
2018-08-31T08:29:31.864Z,1.75
2018-08-31T08:32:21.841Z,2.00
2018-08-31T08:34:51.436Z,2.25
2018-08-31T08:37:19.814Z,0.75
2018-08-31T08:39:48.180Z,1.75
2018-08-31T08:42:17.528Z,1.25
2018-08-31T08:44:46.815Z,2.00
2018-08-31T08:47:16.083Z,1.00
2018-08-31T08:49:45.336Z,2.00
2018-08-31T08:52:14.066Z,1.00
2018-08-31T08:54:43.111Z,1.00
2018-08-31T08:59:57.977Z,1.25
2018-08-31T09:02:27.346Z,1.00
2018-08-31T09:04:55.692Z,2.00
2018-08-31T09:07:24.783Z,1.00
2018-08-31T09:09:54.110Z,1.00
2018-08-31T09:12:22.408Z,1.00
2018-08-31T09:14:50.736Z,1.75
2018-08-31T09:17:19.164Z,1.00
2018-08-31T09:19:48.485Z,0.00
2018-08-31T09:22:17.303Z,1.00
2018-08-31T09:24:45.629Z,1.00
2018-08-31T09:27:14.490Z,1.75
2018-08-31T09:29:43.064Z,0.75
2018-08-31T09:32:17.401Z,1.00
2018-08-31T09:34:52.207Z,1.50
2018-08-31T09:37:20.693Z,2.00
2018-08-31T09:39:49.697Z,1.75
2018-08-31T09:42:19.707Z,1.00
2018-08-31T09:44:48.109Z,1.00
2018-08-31T09:47:16.452Z,1.00
2018-08-31T09:49:45.738Z,1.00
2018-08-31T09:52:15.483Z,1.00
2018-08-31T09:54:43.947Z,1.50
2018-08-31T09:57:12.284Z,1.50
2018-08-31T09:59:41.542Z,1.00
2018-08-31T10:02:15.765Z,1.00
2018-08-31T10:04:44.723Z,1.50
2018-08-31T10:07:13.700Z,0.00
2018-08-31T10:09:41.999Z,0.75
2018-08-31T10:12:14.346Z,1.00
2018-08-31T10:14:42.649Z,1.00
2018-08-31T10:17:11.326Z,1.00
2018-08-31T10:19:40.222Z,3.50
2018-08-31T10:22:08.586Z,1.75
2018-08-31T10:24:36.903Z,1.00
2018-08-31T10:27:05.957Z,2.00
2018-08-31T10:29:35.096Z,1.75
2018-08-31T10:32:03.424Z,1.00
2018-08-31T10:34:33.558Z,1.00
2018-08-31T10:37:01.946Z,1.00
2018-08-31T10:39:31.184Z,1.00
2018-08-31T10:41:59.441Z,1.00
2018-08-31T10:44:27.750Z,1.25
2018-08-31T10:46:59.505Z,1.25
2018-08-31T10:49:27.756Z,1.25
2018-08-31T10:51:56.723Z,1.00
2018-08-31T10:54:24.958Z,2.00
2018-08-31T10:56:53.421Z,1.75
2018-08-31T10:59:21.716Z,1.00
2018-08-31T11:01:50.042Z,1.00
2018-08-31T11:04:18.301Z,1.00
2018-08-31T11:06:46.650Z,1.75
2018-08-31T11:09:16.405Z,0.75
2018-08-31T11:11:45.560Z,1.75
2018-08-31T11:14:13.859Z,1.00
2018-08-31T11:16:42.838Z,1.25
2018-08-31T11:19:11.210Z,1.50
2018-08-31T11:21:39.525Z,1.50
2018-08-31T11:24:07.963Z,2.00
2018-08-31T11:26:36.259Z,3.50
2018-08-31T11:29:04.600Z,3.00
2018-08-31T11:31:33.668Z,2.00
2018-08-31T11:34:01.970Z,3.00
2018-08-31T11:36:30.259Z,2.00
2018-08-31T11:38:58.539Z,2.00
2018-08-31T11:41:26.902Z,2.00
2018-08-31T11:43:55.260Z,2.00
2018-08-31T11:46:23.791Z,1.00
2018-08-31T11:48:52.546Z,2.00
2018-08-31T11:51:22.024Z,1.50
2018-08-31T11:53:50.663Z,2.50
2018-08-31T11:56:18.927Z,1.00
2018-08-31T11:58:47.245Z,1.50
2018-08-31T12:01:15.581Z,2.00
2018-08-31T12:03:44.435Z,2.00
2018-08-31T12:06:13.667Z,3.50
2018-08-31T12:08:42.419Z,1.50
2018-08-31T12:11:11.253Z,1.25
2018-08-31T12:13:41.623Z,2.00
2018-08-31T12:16:10.001Z,1.00
2018-08-31T12:18:38.286Z,1.75
2018-08-31T12:21:07.503Z,1.00
2018-08-31T12:23:36.105Z,1.25
2018-08-31T12:26:04.386Z,2.00
2018-08-31T12:28:32.663Z,3.00
2018-08-31T12:31:00.951Z,2.00
2018-08-31T12:33:29.256Z,1.00
2018-08-31T12:35:57.568Z,1.00
2018-08-31T12:38:26.328Z,1.50
2018-08-31T12:40:54.664Z,1.00
2018-08-31T12:43:23.001Z,1.00
2018-08-31T12:45:53.293Z,2.00
2018-08-31T12:48:22.619Z,2.00
2018-08-31T12:50:50.931Z,1.75
2018-08-31T12:53:19.278Z,2.00
2018-08-31T12:55:47.520Z,1.00
2018-08-31T12:58:16.900Z,1.00
2018-08-31T13:00:45.180Z,1.50
2018-08-31T13:03:13.500Z,1.00
2018-08-31T13:05:41.790Z,1.25
2018-08-31T13:08:10.190Z,1.00
2018-08-31T13:10:38.526Z,1.00
2018-08-31T13:13:06.861Z,1.00
2018-08-31T13:15:35.650Z,0.75
2018-08-31T13:18:03.965Z,1.00
2018-08-31T13:20:32.680Z,2.00
2018-08-31T13:23:00.992Z,1.00
2018-08-31T13:25:34.099Z,1.00
2018-08-31T13:28:02.395Z,1.00
2018-08-31T13:30:30.689Z,1.00
2018-08-31T13:33:00.360Z,1.50
2018-08-31T13:35:28.688Z,1.00
2018-08-31T13:37:57.326Z,2.50
2018-08-31T13:40:26.405Z,1.00
2018-08-31T13:42:54.699Z,1.00
2018-08-31T13:45:23.006Z,1.75
2018-08-31T13:47:52.678Z,0.50
2018-08-31T13:50:21.113Z,1.00
2018-08-31T13:52:50.058Z,0.25
2018-08-31T13:55:18.532Z,0.25
2018-08-31T13:57:47.454Z,1.00
2018-08-31T14:00:16.544Z,2.00
2018-08-31T14:02:48.275Z,1.00
2018-08-31T14:05:16.595Z,1.75
2018-08-31T14:07:44.915Z,2.00
2018-08-31T14:10:15.729Z,1.00
2018-08-31T14:12:44.082Z,1.00
2018-08-31T14:15:12.365Z,1.00
2018-08-31T14:17:40.719Z,0.00
2018-08-31T14:20:09.031Z,0.75
2018-08-31T14:22:37.560Z,0.25
2018-08-31T14:25:05.898Z,1.00
2018-08-31T14:27:35.015Z,0.75
2018-08-31T14:30:03.954Z,1.00
2018-08-31T14:32:32.315Z,0.00
2018-08-31T14:35:00.630Z,1.00
2018-08-31T14:37:28.919Z,0.00
2018-08-31T14:39:57.248Z,0.25
2018-08-31T14:42:25.616Z,1.00
2018-08-31T14:44:53.975Z,1.00
2018-08-31T14:47:22.826Z,0.75
2018-08-31T14:49:51.196Z,1.00
2018-08-31T14:52:19.409Z,1.00
2018-08-31T14:54:47.774Z,1.00
2018-08-31T14:57:16.047Z,0.75
2018-08-31T14:59:44.354Z,1.00
2018-08-31T15:02:12.641Z,0.25
2018-08-31T15:04:40.943Z,1.00
2018-08-31T15:07:09.231Z,1.00
2018-08-31T15:09:38.512Z,1.00
2018-08-31T15:12:06.941Z,1.00
2018-08-31T15:14:35.991Z,0.00
2018-08-31T15:17:04.506Z,1.00
2018-08-31T15:19:32.839Z,2.00
2018-08-31T15:22:01.180Z,1.00
2018-08-31T15:24:29.442Z,1.00
2018-08-31T15:26:57.753Z,0.25
2018-08-31T15:29:26.048Z,1.00
2018-08-31T15:31:55.298Z,0.00
2018-08-31T15:34:24.219Z,0.00
2018-08-31T15:36:52.666Z,1.00
2018-08-31T15:39:20.759Z,1.00
2018-08-31T15:41:49.037Z,1.75
2018-08-31T15:44:17.337Z,1.00
2018-08-31T15:46:45.637Z,0.75
2018-08-31T15:49:13.992Z,1.00
2018-08-31T15:51:42.286Z,1.00
2018-08-31T15:54:10.551Z,0.50
2018-08-31T15:56:38.872Z,0.00
2018-08-31T15:59:07.255Z,1.00
2018-08-31T16:01:35.537Z,2.00
2018-08-31T16:04:03.862Z,1.00
2018-08-31T16:06:32.158Z,1.25
2018-08-31T16:09:00.447Z,1.00
2018-08-31T16:11:28.748Z,1.25
2018-08-31T16:13:57.037Z,2.00
2018-08-31T16:16:25.297Z,1.50
2018-08-31T16:18:53.613Z,1.00
2018-08-31T16:21:22.879Z,1.00
2018-08-31T16:23:51.156Z,1.00
2018-08-31T16:26:20.252Z,2.00
2018-08-31T16:28:48.596Z,1.00
2018-08-31T16:31:18.375Z,1.00
2018-08-31T16:33:46.646Z,1.00
2018-08-31T16:36:14.951Z,1.25
2018-08-31T16:38:43.308Z,1.00
2018-08-31T16:41:11.617Z,1.00
2018-08-31T16:43:40.639Z,0.50
2018-08-31T16:46:08.969Z,1.50
2018-08-31T16:48:37.279Z,0.25
2018-08-31T16:51:05.620Z,1.00
2018-08-31T16:53:33.964Z,1.00
2018-08-31T16:56:02.900Z,0.75
2018-08-31T16:58:31.234Z,1.75
2018-08-31T17:00:59.531Z,0.50
2018-08-31T17:03:28.620Z,1.00
2018-08-31T17:05:56.917Z,1.00
2018-08-31T17:08:25.251Z,1.00
2018-08-31T17:10:53.548Z,1.25
2018-08-31T17:13:21.856Z,2.00
2018-08-31T17:15:53.052Z,1.00
2018-08-31T17:18:22.418Z,0.75
2018-08-31T17:20:50.736Z,1.00
2018-08-31T17:23:19.596Z,1.00
2018-08-31T17:25:47.883Z,2.00
2018-08-31T17:28:22.769Z,1.00
2018-08-31T17:30:55.202Z,0.25
2018-08-31T17:33:28.912Z,1.00
2018-08-31T17:36:02.583Z,1.00
2018-08-31T17:38:34.320Z,1.00
2018-08-31T17:41:02.686Z,1.00
2018-08-31T17:43:31.052Z,1.00
2018-08-31T17:45:59.995Z,1.00
2018-08-31T17:48:29.660Z,1.00
2018-08-31T17:50:57.992Z,0.25
2018-08-31T17:53:26.588Z,1.00
2018-08-31T17:55:54.899Z,1.00
2018-08-31T17:58:25.143Z,1.25
2018-08-31T18:00:55.001Z,0.50
2018-08-31T18:03:24.064Z,0.75
2018-08-31T18:05:52.625Z,1.00
2018-08-31T18:08:23.076Z,1.00
2018-08-31T18:10:51.778Z,1.00
2018-08-31T18:13:20.118Z,1.75
2018-08-31T18:15:50.536Z,1.00
2018-08-31T18:18:18.854Z,1.00
2018-08-31T18:20:48.197Z,1.25
2018-08-31T18:23:17.191Z,3.00
2018-08-31T18:25:46.348Z,1.00
2018-08-31T18:28:14.840Z,2.00
2018-08-31T18:30:43.187Z,1.00
2018-08-31T18:33:11.613Z,1.00
2018-08-31T18:35:40.762Z,1.75
2018-08-31T18:38:09.057Z,1.00
2018-08-31T18:40:38.649Z,1.50
2018-08-31T18:43:07.211Z,1.00
2018-08-31T18:45:35.483Z,2.75
2018-08-31T18:48:05.465Z,1.00
2018-08-31T18:50:34.401Z,2.75
2018-08-31T18:53:02.876Z,1.75
2018-08-31T18:55:32.207Z,2.75
2018-08-31T18:58:02.255Z,3.00
2018-08-31T19:00:30.534Z,3.00
2018-08-31T19:02:59.045Z,1.00
2018-08-31T19:05:27.347Z,1.00
2018-08-31T19:07:56.068Z,3.00
2018-08-31T19:10:24.739Z,1.00
2018-08-31T19:12:53.142Z,3.00
2018-08-31T19:15:21.492Z,2.00
2018-08-31T19:17:49.818Z,3.00
2018-08-31T19:20:18.123Z,4.00
2018-08-31T19:22:46.439Z,3.50
2018-08-31T19:25:15.029Z,4.00
2018-08-31T19:27:44.414Z,3.00
2018-08-31T19:30:12.687Z,3.00
2018-08-31T19:32:41.070Z,3.00
2018-08-31T19:35:10.023Z,4.00
2018-08-31T19:37:38.407Z,3.50
2018-08-31T19:40:07.830Z,3.00
2018-08-31T19:42:37.154Z,4.00
2018-08-31T19:45:07.763Z,4.00
2018-08-31T19:47:36.120Z,6.00
2018-08-31T19:50:04.472Z,4.00
2018-08-31T19:52:32.779Z,7.00
2018-08-31T19:55:01.570Z,3.25
2018-08-31T19:57:30.222Z,4.00
2018-08-31T19:59:58.555Z,4.00
2018-08-31T20:02:26.879Z,4.50
2018-08-31T20:04:55.155Z,6.00
2018-08-31T20:07:23.496Z,4.00
2018-08-31T20:09:51.813Z,7.75
2018-08-31T20:12:21.291Z,7.75
2018-08-31T20:14:49.579Z,9.00
2018-08-31T20:17:18.330Z,9.00
2018-08-31T20:19:47.456Z,9.00
2018-08-31T20:22:15.826Z,11.00
2018-08-31T20:24:44.870Z,9.00
2018-08-31T20:27:13.767Z,8.00
2018-08-31T20:29:42.070Z,11.00
2018-08-31T20:32:10.375Z,8.25
2018-08-31T20:34:39.236Z,6.50
2018-08-31T20:37:07.500Z,4.00
2018-08-31T20:39:35.823Z,4.00
2018-08-31T20:42:04.123Z,6.00
2018-08-31T20:44:33.191Z,6.00
2018-08-31T20:47:01.697Z,7.00
2018-08-31T20:49:30.968Z,7.50
2018-08-31T20:51:59.258Z,6.00
2018-08-31T20:54:27.577Z,6.00
2018-08-31T20:56:57.106Z,7.50
2018-08-31T20:59:25.412Z,8.00
2018-08-31T21:01:53.718Z,6.00
2018-08-31T21:04:22.077Z,5.75
2018-08-31T21:06:50.395Z,8.00
2018-08-31T21:09:18.690Z,4.25
2018-08-31T21:11:46.991Z,6.00
2018-08-31T21:14:15.335Z,6.00
2018-08-31T21:16:43.603Z,8.00
2018-08-31T21:19:12.504Z,6.00
2018-08-31T21:21:40.866Z,5.75
2018-08-31T21:24:09.492Z,5.50
2018-08-31T21:26:37.810Z,6.50
2018-08-31T21:29:06.091Z,8.25
2018-08-31T21:31:35.062Z,8.00
2018-08-31T21:34:03.347Z,4.25
2018-08-31T21:36:31.654Z,6.00
2018-08-31T21:38:59.936Z,5.00
2018-08-31T21:41:28.212Z,8.00
2018-08-31T21:43:57.104Z,6.00
2018-08-31T21:46:26.235Z,7.50
2018-08-31T21:48:54.518Z,5.75
2018-08-31T21:51:22.787Z,5.75
2018-08-31T21:53:51.072Z,9.75
2018-08-31T21:56:19.375Z,8.00
2018-08-31T21:58:48.290Z,8.00
2018-08-31T22:01:21.937Z,6.50
2018-08-31T22:03:50.333Z,8.00
2018-08-31T22:06:19.390Z,5.75
2018-08-31T22:08:47.655Z,6.00
2018-08-31T22:11:16.986Z,6.00
2018-08-31T22:13:45.275Z,8.00
2018-08-31T22:16:13.574Z,8.50
2018-08-31T22:18:42.432Z,8.00
2018-08-31T22:21:11.303Z,7.00
2018-08-31T22:23:39.599Z,9.75
2018-08-31T22:26:07.897Z,7.50
2018-08-31T22:28:37.178Z,8.00
2018-08-31T22:31:05.602Z,9.25
2018-08-31T22:33:34.755Z,9.50
2018-08-31T22:36:03.063Z,9.50
2018-08-31T22:38:31.639Z,6.50
2018-08-31T22:41:02.862Z,11.00
2018-08-31T22:43:36.513Z,8.50
2018-08-31T22:46:04.747Z,10.50
2018-08-31T22:48:33.088Z,10.00
2018-08-31T22:51:01.402Z,9.75
2018-08-31T22:53:29.748Z,11.25
2018-08-31T22:55:58.052Z,8.00
2018-08-31T22:58:26.351Z,12.25
2018-08-31T23:00:54.663Z,11.00
2018-08-31T23:03:22.968Z,11.75
2018-08-31T23:05:51.287Z,10.00
2018-08-31T23:08:19.609Z,8.50
2018-08-31T23:10:47.997Z,13.00
2018-08-31T23:13:17.118Z,13.00
2018-08-31T23:15:45.406Z,11.00
2018-08-31T23:18:13.726Z,12.75
2018-08-31T23:20:42.990Z,13.00
2018-08-31T23:23:16.597Z,13.00
2018-08-31T23:25:48.900Z,13.00
2018-08-31T23:28:17.775Z,14.00
2018-08-31T23:30:46.217Z,13.00
2018-08-31T23:33:16.848Z,13.50
2018-08-31T23:35:46.104Z,16.00
2018-08-31T23:38:14.427Z,16.00
2018-08-31T23:40:43.710Z,18.00
2018-08-31T23:43:12.024Z,16.75
2018-08-31T23:45:42.328Z,16.75
2018-08-31T23:48:10.691Z,18.00
2018-08-31T23:50:39.099Z,15.50
2018-08-31T23:53:07.422Z,16.50
2018-08-31T23:55:36.196Z,18.25
2018-08-31T23:58:07.534Z,17.00
